Time;durP1;ratioP1;P1;durP2;ratioP2;P2;SDS_P1;SDS_P2;PMS_P1;PMS_P2;Temp;Humidity;BMP_temperature;BMP_pressure;BME280_temperature;BME280_humidity;BME280_pressure;Samples;Min_cycle;Max_cycle;Signal;HPM_P1;HPM_P2
2022/11/10 00:00:19;;;;;;;7.18;2.78;;;11.20;99.90;;;;;;4978807;28;20044;-69
2022/11/10 00:02:46;;;;;;;11.32;2.97;;;11.00;99.90;;;;;;4977658;28;20036;-69
2022/11/10 00:05:13;;;;;;;9.10;2.75;;;10.90;99.90;;;;;;4978661;28;20026;-69
2022/11/10 00:07:39;;;;;;;11.48;3.03;;;10.80;99.90;;;;;;4996609;28;20089;-69
2022/11/10 00:10:05;;;;;;;6.45;2.55;;;10.70;99.90;;;;;;4978607;28;20031;-69
2022/11/10 00:12:31;;;;;;;7.15;2.85;;;10.60;99.90;;;;;;4995898;28;20029;-69
2022/11/10 00:17:41;;;;;;;7.18;2.28;;;10.10;99.90;;;;;;4997028;28;20049;-69
2022/11/10 00:20:07;;;;;;;7.47;2.90;;;9.90;99.90;;;;;;4978677;28;20027;-69
2022/11/10 00:22:34;;;;;;;13.65;3.47;;;10.00;99.90;;;;;;4995829;28;20022;-69
2022/11/10 00:25:00;;;;;;;8.35;3.00;;;9.70;99.90;;;;;;4995813;28;20466;-69
2022/11/10 00:27:25;;;;;;;12.85;3.33;;;9.50;99.90;;;;;;4978574;28;20063;-69
2022/11/10 00:29:51;;;;;;;7.20;3.83;;;9.60;99.90;;;;;;4978248;28;20077;-69
2022/11/10 00:32:16;;;;;;;8.23;3.70;;;9.80;99.90;;;;;;4979046;28;20061;-68
2022/11/10 00:34:42;;;;;;;8.48;3.17;;;9.90;99.90;;;;;;4978952;28;20052;-68
2022/11/10 00:37:07;;;;;;;6.03;3.15;;;9.90;99.90;;;;;;4978414;28;20053;-68
2022/11/10 00:39:33;;;;;;;12.07;3.03;;;9.60;99.90;;;;;;4978417;28;20072;-68
2022/11/10 00:41:58;;;;;;;6.82;3.33;;;9.60;99.90;;;;;;4978055;28;20019;-68
2022/11/10 00:44:24;;;;;;;12.25;3.08;;;9.60;99.90;;;;;;4995656;28;20022;-68
2022/11/10 00:46:49;;;;;;;5.97;2.50;;;9.50;99.90;;;;;;4977775;28;20033;-68
2022/11/10 00:49:15;;;;;;;7.85;2.65;;;9.50;99.90;;;;;;4978930;28;20027;-68
2022/11/10 00:51:40;;;;;;;9.98;3.70;;;9.60;99.90;;;;;;4995262;28;20026;-68
2022/11/10 00:54:06;;;;;;;9.82;3.13;;;9.60;99.90;;;;;;4995146;28;20022;-68
2022/11/10 00:56:31;;;;;;;4.93;2.47;;;9.60;99.90;;;;;;4978006;28;20061;-68
2022/11/10 00:58:57;;;;;;;8.23;2.30;;;9.50;99.90;;;;;;4977636;28;20033;-68
2022/11/10 01:01:24;;;;;;;4.82;2.85;;;9.40;99.90;;;;;;4977687;28;20030;-68
2022/11/10 01:03:50;;;;;;;6.57;2.35;;;9.20;99.90;;;;;;4977581;28;20026;-68
2022/11/10 01:06:17;;;;;;;4.45;2.40;;;9.00;99.90;;;;;;4977495;28;20117;-68
2022/11/10 01:08:43;;;;;;;4.88;2.10;;;9.00;99.90;;;;;;4994886;28;20030;-68
2022/11/10 01:11:24;;;;;;;6.03;2.38;;;9.10;99.90;;;;;;4995172;28;20027;-68
2022/11/10 01:13:51;;;;;;;9.98;2.40;;;9.10;99.90;;;;;;4977144;28;20022;-68
2022/11/10 01:16:26;;;;;;;10.55;3.25;;;9.10;99.90;;;;;;4977495;28;20077;-68
2022/11/10 01:18:54;;;;;;;8.02;3.67;;;9.10;99.90;;;;;;4993461;28;20077;-68
2022/11/10 01:21:21;;;;;;;6.10;2.97;;;9.10;99.90;;;;;;4977370;28;20062;-69
2022/11/10 01:23:47;;;;;;;5.38;2.97;;;9.10;99.90;;;;;;4994719;28;20031;-69
2022/11/10 01:26:13;;;;;;;5.43;2.80;;;9.10;99.90;;;;;;4977935;28;20034;-69
2022/11/10 01:28:39;;;;;;;10.95;3.10;;;9.00;99.90;;;;;;4977080;28;20026;-69
2022/11/10 01:31:11;;;;;;;9.15;3.03;;;8.90;99.90;;;;;;4977202;28;20029;-69
2022/11/10 01:33:38;;;;;;;13.45;3.38;;;8.50;99.90;;;;;;4977744;28;20026;-69
2022/11/10 01:36:04;;;;;;;10.18;2.95;;;8.50;99.90;;;;;;4977037;28;20027;-69
2022/11/10 01:38:32;;;;;;;6.10;3.15;;;8.30;99.90;;;;;;4977391;28;20054;-69
2022/11/10 01:40:58;;;;;;;7.63;2.95;;;8.30;99.90;;;;;;4994316;28;20030;-69
2022/11/10 01:43:25;;;;;;;10.65;3.08;;;8.10;99.90;;;;;;4994303;28;20034;-69
2022/11/10 01:45:52;;;;;;;7.95;2.65;;;8.20;99.90;;;;;;4976898;28;20117;-69
2022/11/10 01:48:58;;;;;;;6.68;2.35;;;8.40;99.90;;;;;;4994145;28;20030;-69
2022/11/10 01:51:27;;;;;;;9.95;2.80;;;8.40;99.90;;;;;;4971367;28;20030;-69
2022/11/10 01:53:58;;;;;;;10.48;3.65;;;8.30;99.90;;;;;;4994100;28;20027;-69
2022/11/10 01:56:27;;;;;;;7.15;2.72;;;8.30;99.90;;;;;;4977299;28;20069;-69
2022/11/10 01:58:59;;;;;;;4.40;2.60;;;8.60;99.90;;;;;;4994133;28;20114;-69
2022/11/10 02:01:25;;;;;;;10.93;2.70;;;8.70;99.90;;;;;;4994446;28;20022;-69
2022/11/10 02:03:58;;;;;;;6.03;2.45;;;8.80;99.90;;;;;;4993970;28;20057;-69
2022/11/10 02:06:26;;;;;;;5.78;2.35;;;8.80;99.90;;;;;;4977438;28;20474;-69
2022/11/10 02:08:53;;;;;;;5.05;2.20;;;8.80;99.90;;;;;;4976940;28;20096;-69
2022/11/10 02:11:19;;;;;;;9.18;2.80;;;8.80;99.90;;;;;;4976582;28;20035;-69
2022/11/10 02:13:46;;;;;;;11.88;2.80;;;8.50;99.90;;;;;;4976544;28;20030;-69
2022/11/10 02:16:12;;;;;;;8.20;2.05;;;8.20;99.90;;;;;;4976641;28;20068;-69
2022/11/10 02:18:37;;;;;;;9.75;2.38;;;8.20;99.90;;;;;;4977398;28;20488;-69
2022/11/10 02:21:07;;;;;;;10.80;2.33;;;8.20;99.90;;;;;;4993905;28;20022;-69
2022/11/10 02:23:36;;;;;;;4.20;2.20;;;8.00;99.90;;;;;;4977265;28;20022;-69
2022/11/10 02:26:16;;;;;;;6.65;2.58;;;7.90;99.90;;;;;;4995619;28;20026;-69
2022/11/10 02:28:41;;;;;;;4.70;2.20;;;7.90;99.90;;;;;;4980447;28;20030;-69
2022/11/10 02:31:08;;;;;;;6.05;2.25;;;8.10;99.90;;;;;;4980423;28;20022;-69
2022/11/10 02:33:34;;;;;;;13.88;2.85;;;8.10;99.90;;;;;;4997682;28;20018;-69
2022/11/10 02:36:00;;;;;;;4.95;2.55;;;8.30;99.90;;;;;;4980367;28;20026;-69
2022/11/10 02:38:26;;;;;;;7.15;2.47;;;8.30;99.90;;;;;;4997845;28;20030;-69
2022/11/10 02:40:51;;;;;;;5.10;1.95;;;8.50;99.90;;;;;;4980210;28;20023;-69
2022/11/10 02:43:18;;;;;;;5.28;1.92;;;8.30;99.90;;;;;;4980228;28;20030;-69
2022/11/10 02:45:44;;;;;;;3.20;1.75;;;8.50;99.90;;;;;;4980425;28;20026;-69
2022/11/10 02:48:11;;;;;;;4.82;2.35;;;8.60;99.90;;;;;;4997761;28;20026;-69
2022/11/10 02:50:37;;;;;;;8.63;2.38;;;8.50;99.90;;;;;;4997491;28;20229;-69
2022/11/10 02:53:03;;;;;;;6.10;1.95;;;8.40;99.90;;;;;;4997640;28;20426;-69
2022/11/10 02:55:29;;;;;;;3.95;1.90;;;8.30;99.90;;;;;;4997398;28;20073;-69
2022/11/10 02:57:54;;;;;;;3.88;1.80;;;8.30;99.90;;;;;;4980251;28;20019;-69
2022/11/10 03:00:20;;;;;;;9.25;2.17;;;8.20;99.90;;;;;;4979968;28;20084;-69
2022/11/10 03:02:46;;;;;;;4.32;1.70;;;8.10;99.90;;;;;;4997608;28;20030;-69
2022/11/10 03:05:11;;;;;;;3.60;2.10;;;8.20;99.90;;;;;;4997558;28;20030;-69
2022/11/10 03:07:37;;;;;;;5.03;2.00;;;8.10;99.90;;;;;;4979647;28;20173;-69
2022/11/10 03:10:04;;;;;;;9.73;2.53;;;8.10;99.90;;;;;;4979623;28;20034;-69
2022/11/10 03:12:29;;;;;;;7.75;2.08;;;8.00;99.90;;;;;;4996999;28;20027;-69
2022/11/10 03:14:55;;;;;;;7.22;2.10;;;8.00;99.90;;;;;;4997294;28;20109;-69
2022/11/10 03:17:20;;;;;;;3.33;1.95;;;7.90;99.90;;;;;;4979684;28;20460;-69
2022/11/10 03:19:46;;;;;;;4.13;2.47;;;7.90;99.90;;;;;;4980353;28;20018;-69
2022/11/10 03:22:11;;;;;;;4.15;1.80;;;8.00;99.90;;;;;;4979913;28;20022;-69
2022/11/10 03:24:37;;;;;;;6.45;2.10;;;8.10;99.90;;;;;;4979487;28;20030;-69
2022/11/10 03:27:02;;;;;;;4.03;2.72;;;8.10;99.90;;;;;;4979377;28;20026;-69
2022/11/10 03:29:28;;;;;;;4.60;1.75;;;7.90;99.90;;;;;;4979342;28;20489;-69
2022/11/10 03:31:54;;;;;;;3.85;1.50;;;8.00;99.90;;;;;;4979373;28;20026;-69
2022/11/10 03:34:19;;;;;;;3.50;1.83;;;8.10;99.90;;;;;;4996625;28;20084;-69
2022/11/10 03:36:45;;;;;;;5.75;1.80;;;8.10;99.90;;;;;;4979316;28;20026;-69
2022/11/10 03:39:10;;;;;;;6.35;1.80;;;8.20;99.90;;;;;;4996600;28;20027;-69
2022/11/10 03:41:36;;;;;;;5.47;2.22;;;8.00;99.90;;;;;;4996599;28;20027;-69
2022/11/10 03:44:01;;;;;;;5.15;1.83;;;8.10;99.90;;;;;;4996499;28;20500;-69
2022/11/10 03:46:27;;;;;;;5.10;1.92;;;8.00;99.90;;;;;;4979314;28;20041;-69
2022/11/10 03:48:52;;;;;;;3.03;1.48;;;7.80;99.90;;;;;;4979285;28;20098;-69
2022/11/10 03:51:18;;;;;;;6.07;1.80;;;7.80;99.90;;;;;;4996471;28;20030;-69
2022/11/10 03:53:43;;;;;;;6.07;2.35;;;7.90;99.90;;;;;;4978981;28;20026;-69
2022/11/10 03:56:10;;;;;;;8.80;2.00;;;8.10;99.90;;;;;;4978829;28;20128;-69
2022/11/10 03:58:36;;;;;;;6.53;2.20;;;8.20;99.90;;;;;;4996186;28;20030;-69
2022/11/10 04:01:02;;;;;;;4.85;2.00;;;8.00;99.90;;;;;;4978732;28;20022;-69
2022/11/10 04:03:27;;;;;;;3.63;2.15;;;8.10;99.90;;;;;;4979128;28;20026;-68
2022/11/10 04:09:00;;;;;;;11.50;1.83;;;7.60;99.90;;;;;;4968200;28;20108;-68
2022/11/10 04:16:59;;;;;;;7.20;2.30;;;7.90;99.90;;;;;;4996117;28;20033;-68
2022/11/10 04:19:25;;;;;;;6.35;2.13;;;8.00;99.90;;;;;;4978996;28;20018;-68
2022/11/10 04:21:51;;;;;;;3.90;1.90;;;7.70;99.90;;;;;;4978712;28;20023;-68
2022/11/10 04:24:16;;;;;;;6.38;1.52;;;7.60;99.90;;;;;;4978249;28;20026;-68
2022/11/10 04:26:43;;;;;;;3.17;1.52;;;7.50;99.90;;;;;;4995875;28;20027;-68
2022/11/10 04:29:10;;;;;;;4.35;1.77;;;7.60;99.90;;;;;;4978537;28;20049;-68
2022/11/10 04:31:38;;;;;;;9.57;2.22;;;7.50;99.90;;;;;;4995713;28;20022;-68
2022/11/10 04:34:05;;;;;;;7.75;2.03;;;7.60;99.90;;;;;;4995544;28;20054;-68
2022/11/10 04:36:32;;;;;;;5.97;1.83;;;7.60;99.90;;;;;;4978327;28;20022;-68
2022/11/10 04:38:57;;;;;;;5.93;2.05;;;7.80;99.90;;;;;;4982929;28;20045;-68
2022/11/10 04:41:24;;;;;;;7.63;1.92;;;7.90;99.90;;;;;;4995536;28;20029;-68
2022/11/10 04:43:50;;;;;;;7.03;1.42;;;7.70;99.90;;;;;;4995488;28;20034;-68
2022/11/10 04:46:27;;;;;;;3.03;1.75;;;7.50;99.90;;;;;;4978192;28;20114;-68
2022/11/10 04:48:54;;;;;;;6.53;2.33;;;7.70;99.90;;;;;;4995150;28;20050;-68
2022/11/10 04:51:22;;;;;;;11.20;2.20;;;7.80;99.90;;;;;;4995330;28;20023;-68
2022/11/10 04:53:47;;;;;;;2.75;1.60;;;7.80;99.90;;;;;;4995124;28;20038;-68
2022/11/10 04:56:18;;;;;;;4.63;2.08;;;7.90;99.90;;;;;;4977700;28;20053;-68
2022/11/10 04:58:44;;;;;;;6.85;2.35;;;7.90;99.90;;;;;;4977751;28;20026;-68
2022/11/10 05:01:16;;;;;;;3.55;2.03;;;7.60;99.90;;;;;;4995145;28;20026;-68
2022/11/10 05:03:42;;;;;;;4.05;1.85;;;7.70;99.90;;;;;;4995432;28;20056;-69
2022/11/10 05:06:08;;;;;;;7.28;2.38;;;7.80;99.90;;;;;;4994989;28;20042;-69
2022/11/10 05:08:34;;;;;;;6.15;1.88;;;7.70;99.90;;;;;;4978347;28;20057;-69
2022/11/10 05:11:00;;;;;;;7.70;2.08;;;7.60;99.90;;;;;;4979993;28;20121;-69
2022/11/10 05:13:26;;;;;;;11.27;2.28;;;7.50;99.90;;;;;;4980964;28;20061;-69
2022/11/10 05:15:52;;;;;;;7.95;1.60;;;7.50;99.90;;;;;;4978143;28;20108;-68
2022/11/10 05:18:18;;;;;;;5.03;1.90;;;7.50;99.90;;;;;;4997216;28;20034;-68
2022/11/10 05:20:43;;;;;;;7.60;2.30;;;7.50;99.90;;;;;;4995330;28;20019;-68
2022/11/10 05:25:52;;;;;;;8.65;3.22;;;7.60;99.90;;;;;;4995234;28;20033;-68
2022/11/10 05:28:18;;;;;;;7.05;2.78;;;7.70;99.90;;;;;;4994556;28;20023;-68
2022/11/10 05:30:44;;;;;;;10.82;2.28;;;7.40;99.90;;;;;;4977330;28;20057;-68
2022/11/10 05:33:10;;;;;;;7.68;2.40;;;7.20;99.90;;;;;;4977935;28;20054;-68
2022/11/10 05:35:35;;;;;;;9.02;3.03;;;7.20;99.90;;;;;;4977195;28;20495;-68
2022/11/10 05:38:02;;;;;;;4.10;2.70;;;7.40;99.90;;;;;;4994486;28;20018;-68
2022/11/10 05:40:28;;;;;;;6.55;2.75;;;7.40;99.90;;;;;;4977153;28;20030;-68
2022/11/10 05:42:53;;;;;;;11.38;3.35;;;7.30;99.90;;;;;;4995559;28;20054;-68
2022/11/10 05:45:21;;;;;;;5.03;2.90;;;7.30;99.90;;;;;;4994357;28;20026;-68
2022/11/10 05:47:47;;;;;;;8.95;3.83;;;7.50;99.90;;;;;;4994446;28;20040;-68
2022/11/10 05:50:13;;;;;;;6.80;2.67;;;7.40;99.90;;;;;;4994639;28;20041;-68
2022/11/10 05:52:43;;;;;;;5.28;3.28;;;7.40;99.90;;;;;;4977478;28;20026;-68
2022/11/10 05:55:09;;;;;;;8.07;3.70;;;7.30;99.90;;;;;;4976913;28;20030;-68
2022/11/10 05:57:35;;;;;;;6.65;3.13;;;7.40;99.90;;;;;;4994592;28;20056;-69
2022/11/10 06:00:02;;;;;;;6.07;3.20;;;7.50;99.90;;;;;;4976031;28;20023;-69
2022/11/10 06:02:28;;;;;;;6.90;3.42;;;7.50;99.90;;;;;;4977211;28;20094;-69
2022/11/10 06:04:53;;;;;;;9.75;3.17;;;7.30;99.90;;;;;;4976917;28;20095;-69
2022/11/10 06:07:19;;;;;;;5.00;3.05;;;7.20;99.90;;;;;;4977881;28;20053;-68
2022/11/10 06:09:44;;;;;;;7.15;3.35;;;7.20;99.90;;;;;;4978334;28;20540;-68
2022/11/10 06:12:10;;;;;;;5.75;3.20;;;7.30;99.90;;;;;;4995973;28;20034;-68
2022/11/10 06:14:35;;;;;;;7.03;3.53;;;7.50;99.90;;;;;;4978334;28;20027;-68
2022/11/10 06:17:01;;;;;;;5.70;3.45;;;7.60;99.90;;;;;;4996567;23;20110;-68
2022/11/10 06:19:26;;;;;;;6.53;3.45;;;7.70;99.90;;;;;;4974536;28;20027;-68
2022/11/10 06:21:52;;;;;;;4.93;3.13;;;7.80;99.90;;;;;;4957242;28;20027;-68
2022/11/10 06:24:17;;;;;;;6.43;3.30;;;7.90;99.90;;;;;;4975096;28;20069;-68
2022/11/10 06:26:43;;;;;;;9.93;4.50;;;7.80;99.90;;;;;;4957084;28;20026;-68
2022/11/10 06:29:08;;;;;;;7.20;3.67;;;7.70;99.90;;;;;;4957207;28;20057;-68
2022/11/10 06:31:34;;;;;;;7.13;3.95;;;7.70;99.90;;;;;;4974410;28;20067;-68
2022/11/10 06:34:00;;;;;;;8.63;3.38;;;7.60;99.90;;;;;;4957034;28;20035;-68
2022/11/10 06:36:25;;;;;;;7.95;3.50;;;7.50;99.90;;;;;;4957188;28;20022;-68
2022/11/10 06:38:51;;;;;;;5.38;3.20;;;7.40;99.90;;;;;;4974297;28;20023;-68
2022/11/10 06:41:16;;;;;;;5.63;3.17;;;7.30;99.90;;;;;;4957067;28;20034;-68
2022/11/10 06:43:42;;;;;;;5.07;3.15;;;7.40;99.90;;;;;;4957022;28;20023;-68
2022/11/10 06:46:07;;;;;;;6.35;3.60;;;7.40;99.90;;;;;;4957884;28;20082;-68
2022/11/10 06:48:33;;;;;;;5.93;3.65;;;7.20;99.90;;;;;;4974221;28;20480;-68
2022/11/10 06:51:02;;;;;;;9.38;3.80;;;7.10;99.90;;;;;;4957065;28;20033;-68
2022/11/10 06:53:27;;;;;;;8.80;3.88;;;7.00;99.90;;;;;;4956951;28;20038;-68
2022/11/10 06:55:53;;;;;;;7.25;3.85;;;6.90;99.90;;;;;;4957253;28;20027;-68
2022/11/10 06:58:19;;;;;;;9.30;3.63;;;6.90;99.90;;;;;;4974148;28;20042;-68
2022/11/10 07:00:44;;;;;;;6.82;3.55;;;6.80;99.90;;;;;;4974416;28;20034;-68
2022/11/10 07:03:12;;;;;;;5.80;3.33;;;6.70;99.90;;;;;;4956734;28;20045;-68
2022/11/10 07:05:38;;;;;;;21.13;4.80;;;6.60;99.90;;;;;;4956780;28;20023;-68
2022/11/10 07:08:15;;;;;;;7.85;3.75;;;6.60;99.90;;;;;;4956727;28;20097;-68
2022/11/10 07:10:44;;;;;;;6.00;3.75;;;6.70;99.90;;;;;;4957629;28;20023;-68
2022/11/10 07:13:10;;;;;;;29.88;5.25;;;6.80;99.90;;;;;;4977311;28;20070;-68
2022/11/10 07:15:36;;;;;;;6.88;4.38;;;6.80;99.90;;;;;;4960618;28;20018;-68
2022/11/10 07:18:03;;;;;;;8.15;4.45;;;6.90;99.90;;;;;;4977600;28;20031;-68
2022/11/10 07:20:30;;;;;;;8.38;4.78;;;6.80;99.90;;;;;;4977555;28;20130;-68
2022/11/10 07:23:00;;;;;;;10.25;5.03;;;6.90;99.90;;;;;;4960140;28;20023;-68
2022/11/10 07:25:28;;;;;;;8.07;4.50;;;6.90;99.90;;;;;;4977813;28;20034;-68
2022/11/10 07:28:01;;;;;;;8.43;5.00;;;7.00;99.90;;;;;;4977368;28;20023;-68
2022/11/10 07:30:28;;;;;;;10.65;4.38;;;7.10;99.90;;;;;;4960363;28;20050;-68
2022/11/10 07:32:58;;;;;;;13.45;4.53;;;7.10;99.90;;;;;;4960085;28;20067;-68
2022/11/10 07:35:27;;;;;;;7.35;4.38;;;7.10;99.90;;;;;;4977391;28;20034;-68
2022/11/10 07:37:56;;;;;;;6.35;3.92;;;7.00;99.90;;;;;;4959859;28;20026;-68
2022/11/10 07:40:22;;;;;;;8.57;4.20;;;6.90;99.90;;;;;;4977467;28;20046;-68
2022/11/10 07:42:48;;;;;;;7.95;4.28;;;7.00;99.90;;;;;;4959791;28;20184;-68
2022/11/10 07:45:14;;;;;;;8.80;4.55;;;7.20;99.90;;;;;;4959855;28;20023;-68
2022/11/10 07:47:39;;;;;;;12.52;4.45;;;7.30;99.90;;;;;;4959743;28;20030;-68
2022/11/10 07:50:06;;;;;;;7.78;4.20;;;7.50;99.90;;;;;;4977038;28;20031;-68
2022/11/10 07:52:31;;;;;;;6.00;3.75;;;7.70;99.90;;;;;;4976970;28;20027;-68
2022/11/10 07:54:57;;;;;;;6.70;3.90;;;7.80;99.90;;;;;;4976946;28;20033;-68
2022/11/10 07:57:22;;;;;;;7.75;4.00;;;7.80;99.90;;;;;;4959747;28;20027;-68
2022/11/10 07:59:48;;;;;;;7.03;3.30;;;7.70;99.90;;;;;;4976859;28;20061;-68
2022/11/10 08:02:13;;;;;;;8.70;4.15;;;7.60;99.90;;;;;;4976800;28;20027;-68
2022/11/10 08:04:39;;;;;;;9.07;3.80;;;7.70;99.90;;;;;;4976726;28;20027;-68
2022/11/10 08:07:04;;;;;;;7.60;3.90;;;7.60;99.90;;;;;;4959659;28;20023;-68
2022/11/10 08:09:30;;;;;;;8.85;4.38;;;7.80;99.90;;;;;;4959364;28;20034;-68
2022/11/10 08:11:55;;;;;;;7.68;4.30;;;7.90;99.90;;;;;;4959691;28;20058;-68
2022/11/10 08:14:21;;;;;;;6.35;3.30;;;7.90;99.90;;;;;;4959642;28;20018;-68
2022/11/10 08:16:47;;;;;;;6.72;3.95;;;8.00;99.90;;;;;;4976435;28;20030;-68
2022/11/10 08:19:12;;;;;;;7.55;3.67;;;8.00;99.90;;;;;;4960392;28;20042;-68
2022/11/10 08:21:38;;;;;;;12.57;3.85;;;8.10;99.90;;;;;;4959170;28;20065;-68
2022/11/10 08:24:03;;;;;;;7.60;4.07;;;8.30;99.90;;;;;;4958125;28;20081;-68
2022/11/10 08:26:29;;;;;;;8.25;3.88;;;8.40;99.90;;;;;;4959397;28;20018;-68
2022/11/10 08:28:54;;;;;;;8.07;4.07;;;8.50;99.90;;;;;;4960062;28;20025;-68
2022/11/10 08:31:20;;;;;;;11.35;3.67;;;8.70;99.90;;;;;;4976344;28;20062;-68
2022/11/10 08:33:46;;;;;;;10.18;3.92;;;8.80;99.90;;;;;;4959432;28;20023;-68
2022/11/10 08:36:11;;;;;;;7.43;4.13;;;8.80;99.90;;;;;;4976297;28;20026;-68
2022/11/10 08:38:37;;;;;;;10.45;3.83;;;8.90;99.90;;;;;;4959129;28;20029;-68
2022/11/10 08:41:02;;;;;;;9.82;3.83;;;9.00;99.90;;;;;;4958851;28;20033;-68
2022/11/10 08:43:28;;;;;;;7.28;3.75;;;9.00;99.90;;;;;;4958741;28;20037;-68
2022/11/10 08:45:57;;;;;;;9.45;3.92;;;9.00;99.90;;;;;;4976008;28;20023;-68
2022/11/10 08:48:23;;;;;;;7.43;3.58;;;9.20;99.90;;;;;;4958682;28;20113;-68
2022/11/10 08:50:49;;;;;;;7.70;3.78;;;9.20;99.90;;;;;;4975979;28;20065;-68
2022/11/10 08:53:23;;;;;;;11.65;3.30;;;9.30;99.90;;;;;;4975911;28;20027;-68
2022/11/10 08:55:49;;;;;;;11.45;3.22;;;9.40;99.90;;;;;;4958689;28;20113;-68
2022/11/10 08:58:20;;;;;;;6.75;3.05;;;9.40;99.90;;;;;;4975902;28;20153;-68
2022/11/10 09:00:46;;;;;;;11.87;3.60;;;9.50;99.90;;;;;;4958543;28;20026;-68
2022/11/10 09:03:17;;;;;;;10.73;4.25;;;9.60;99.90;;;;;;4975657;28;20490;-68
2022/11/10 09:05:44;;;;;;;10.13;3.47;;;9.60;99.90;;;;;;4958469;28;20423;-68
2022/11/10 09:08:09;;;;;;;11.80;3.00;;;9.70;99.90;;;;;;4975826;28;20101;-69
2022/11/10 09:10:38;;;;;;;9.70;3.78;;;9.70;99.90;;;;;;4975900;28;20077;-69
2022/11/10 09:13:04;;;;;;;13.38;3.30;;;9.80;99.90;;;;;;4958123;28;20018;-69
2022/11/10 09:15:31;;;;;;;6.97;2.60;;;9.90;99.90;;;;;;4975543;28;20027;-69
2022/11/10 09:17:58;;;;;;;12.52;3.60;;;9.90;99.90;;;;;;4958241;28;20037;-69
2022/11/10 09:20:25;;;;;;;7.85;2.80;;;10.00;99.90;;;;;;4975553;28;20030;-68
2022/11/10 09:22:50;;;;;;;12.13;3.17;;;10.10;99.90;;;;;;4958059;28;20023;-69
2022/11/10 09:25:16;;;;;;;11.57;3.05;;;10.20;99.90;;;;;;4958804;28;20046;-69
2022/11/10 09:27:41;;;;;;;9.90;3.22;;;10.20;99.90;;;;;;4958229;28;20038;-69
2022/11/10 09:30:07;;;;;;;8.88;3.03;;;10.30;99.90;;;;;;4959065;28;20023;-69
2022/11/10 09:32:34;;;;;;;9.65;3.40;;;10.30;99.90;;;;;;4975446;28;20027;-69
2022/11/10 09:35:00;;;;;;;5.88;3.05;;;10.40;99.90;;;;;;4975066;28;20058;-69
2022/11/10 09:37:26;;;;;;;6.22;2.97;;;10.50;99.90;;;;;;4957658;28;20082;-68
2022/11/10 09:39:52;;;;;;;13.57;3.28;;;10.70;99.90;;;;;;4958632;28;20030;-69
2022/11/10 09:42:30;;;;;;;6.90;2.75;;;10.70;99.90;;;;;;4975009;28;20450;-68
2022/11/10 09:45:07;;;;;;;8.88;2.80;;;10.70;99.90;;;;;;4958770;28;20037;-69
2022/11/10 09:47:47;;;;;;;5.28;2.05;;;10.70;99.90;;;;;;4958432;28;20027;-68
2022/11/10 09:50:28;;;;;;;9.27;3.75;;;10.80;99.90;;;;;;4974928;28;20054;-68
2022/11/10 09:52:56;;;;;;;8.50;3.33;;;10.80;99.90;;;;;;4957716;28;20026;-68
2022/11/10 09:55:43;;;;;;;15.23;2.95;;;10.80;99.90;;;;;;4957512;28;20273;-68
2022/11/10 09:58:12;;;;;;;11.93;2.88;;;10.90;99.90;;;;;;4957452;28;20041;-68
2022/11/10 10:00:40;;;;;;;9.60;3.03;;;10.80;99.90;;;;;;4957477;28;20034;-68
2022/11/10 10:03:06;;;;;;;11.05;2.50;;;10.80;99.90;;;;;;4958260;28;20038;-68
2022/11/10 10:05:52;;;;;;;8.90;3.35;;;10.70;99.90;;;;;;4974690;28;20025;-68
2022/11/10 10:08:42;;;;;;;8.13;2.88;;;10.60;99.90;;;;;;4957282;28;20031;-68
2022/11/10 10:11:35;;;;;;;15.88;3.58;;;10.70;99.90;;;;;;4957439;28;20019;-68
2022/11/10 10:14:27;;;;;;;17.35;4.35;;;10.70;99.90;;;;;;4922155;28;20157;-68
2022/11/10 10:16:58;;;;;;;15.63;3.80;;;10.70;99.90;;;;;;4974463;28;20027;-68
2022/11/10 10:19:37;;;;;;;14.90;2.97;;;10.80;99.90;;;;;;4974631;28;20031;-68
2022/11/10 10:22:28;;;;;;;17.88;3.45;;;10.80;99.90;;;;;;4957964;28;20103;-68
2022/11/10 10:24:58;;;;;;;10.25;2.78;;;11.00;99.90;;;;;;4957826;28;20043;-68
2022/11/10 10:27:25;;;;;;;11.80;3.08;;;11.10;99.90;;;;;;4957272;28;20023;-68
2022/11/10 10:29:52;;;;;;;10.93;3.08;;;11.10;99.90;;;;;;4957422;28;20054;-68
2022/11/10 10:32:18;;;;;;;10.10;3.15;;;11.10;99.90;;;;;;4957085;28;20027;-68
2022/11/10 10:34:45;;;;;;;10.45;2.80;;;11.10;99.90;;;;;;4957307;28;20430;-68
2022/11/10 10:37:28;;;;;;;11.18;3.08;;;11.10;99.90;;;;;;4957823;28;20034;-68
2022/11/10 10:39:54;;;;;;;6.13;2.63;;;11.30;99.90;;;;;;4974803;28;20033;-68
2022/11/10 10:42:30;;;;;;;8.13;2.55;;;11.40;99.90;;;;;;4957546;28;20034;-68
2022/11/10 10:45:22;;;;;;;10.68;2.22;;;11.50;99.90;;;;;;4974315;28;20034;-68
2022/11/10 10:47:51;;;;;;;9.35;2.70;;;11.60;99.90;;;;;;4977252;28;20023;-68
2022/11/10 10:50:25;;;;;;;12.23;2.97;;;11.80;99.90;;;;;;4961682;28;20054;-68
2022/11/10 10:53:09;;;;;;;13.60;2.50;;;11.90;99.90;;;;;;4962051;28;20026;-69
2022/11/10 10:55:36;;;;;;;12.65;2.53;;;12.00;99.90;;;;;;4961564;28;20026;-69
2022/11/10 10:58:05;;;;;;;11.63;2.05;;;12.30;99.90;;;;;;4960722;28;20027;-69
2022/11/10 11:00:32;;;;;;;9.70;2.08;;;12.70;99.90;;;;;;4960663;28;20065;-69
2022/11/10 11:03:09;;;;;;;11.48;2.22;;;12.90;99.90;;;;;;4960430;28;20031;-69
2022/11/10 11:05:35;;;;;;;10.82;1.80;;;13.10;99.90;;;;;;4977700;28;20037;-69
2022/11/10 11:08:01;;;;;;;14.18;3.15;;;13.20;99.90;;;;;;4960210;28;20091;-69
2022/11/10 11:10:32;;;;;;;10.45;2.30;;;13.30;99.90;;;;;;4960633;28;20022;-69
2022/11/10 11:13:11;;;;;;;9.90;2.00;;;13.30;99.90;;;;;;4960311;28;20034;-69
2022/11/10 11:15:37;;;;;;;8.43;1.95;;;13.30;99.90;;;;;;4977819;28;20500;-69
2022/11/10 11:18:12;;;;;;;15.38;3.63;;;13.40;99.90;;;;;;4960001;28;20035;-69
2022/11/10 11:21:02;;;;;;;11.13;2.10;;;13.40;99.90;;;;;;4960145;28;20126;-69
2022/11/10 11:23:47;;;;;;;13.48;2.50;;;13.40;99.90;;;;;;4960077;28;20030;-69
2022/11/10 11:26:24;;;;;;;9.68;2.08;;;13.30;99.90;;;;;;4960600;28;20019;-69
2022/11/10 11:29:12;;;;;;;8.38;2.22;;;13.30;99.90;;;;;;4960226;28;20027;-69
2022/11/10 11:32:06;;;;;;;10.30;2.22;;;13.40;99.90;;;;;;4977246;28;20019;-69
2022/11/10 11:34:46;;;;;;;7.72;2.10;;;13.50;99.90;;;;;;4977148;28;20042;-69
2022/11/10 11:37:35;;;;;;;7.78;1.70;;;13.60;99.90;;;;;;4977405;28;20376;-69
2022/11/10 11:40:22;;;;;;;11.50;2.00;;;14.10;99.90;;;;;;4959666;28;20031;-69
2022/11/10 11:43:11;;;;;;;12.27;1.95;;;14.10;99.90;;;;;;4959724;28;20034;-69
2022/11/10 11:45:52;;;;;;;7.35;1.85;;;14.30;99.90;;;;;;4959927;28;20029;-69
2022/11/10 11:48:33;;;;;;;6.13;1.88;;;14.70;99.90;;;;;;4959428;28;20023;-69
2022/11/10 11:51:14;;;;;;;6.82;1.42;;;15.00;99.90;;;;;;4959593;28;20544;-69
2022/11/10 11:54:21;;;;;;;7.27;1.33;;;15.20;99.90;;;;;;4976826;28;20031;-69
2022/11/10 11:56:49;;;;;;;8.85;1.90;;;15.30;99.90;;;;;;4882763;29;20061;-69
2022/11/10 11:59:42;;;;;;;7.53;1.60;;;15.60;99.90;;;;;;4881553;29;20056;-69
2022/11/10 12:02:37;;;;;;;6.78;1.60;;;15.80;99.90;;;;;;4898812;29;20092;-69
2022/11/10 12:05:29;;;;;;;8.80;2.30;;;16.10;99.90;;;;;;4898736;29;20132;-69
2022/11/10 12:08:20;;;;;;;9.52;1.77;;;15.80;99.90;;;;;;4898457;29;20084;-69
2022/11/10 12:11:13;;;;;;;9.02;2.38;;;15.80;99.90;;;;;;4898183;29;20037;-69
2022/11/10 12:14:06;;;;;;;5.32;1.55;;;16.00;99.90;;;;;;4882355;29;20035;-69
2022/11/10 12:16:50;;;;;;;8.52;1.75;;;16.30;99.90;;;;;;4898047;29;20037;-69
2022/11/10 12:19:50;;;;;;;6.43;2.55;;;16.50;99.90;;;;;;4898537;29;20044;-69
2022/11/10 12:22:44;;;;;;;7.30;1.50;;;16.50;99.90;;;;;;4898512;29;20072;-69
2022/11/10 12:25:27;;;;;;;8.15;1.60;;;16.90;99.90;;;;;;4882378;29;20066;-69
2022/11/10 12:28:26;;;;;;;6.40;1.48;;;17.00;99.90;;;;;;4882124;29;20020;-69
2022/11/10 12:31:13;;;;;;;7.50;1.60;;;17.10;99.90;;;;;;4934253;28;20035;-69
2022/11/10 12:36:45;;;;;;;7.88;1.60;;;17.30;99.90;;;;;;4973125;28;20042;-69
2022/11/10 12:40:04;;;;;;;5.40;1.23;;;17.30;99.90;;;;;;4958658;28;20166;-69
2022/11/10 12:42:35;;;;;;;8.95;2.97;;;17.50;99.90;;;;;;4947251;28;20084;-69
2022/11/10 12:45:30;;;;;;;5.95;1.63;;;17.60;99.90;;;;;;4975813;28;20031;-69
2022/11/10 12:48:15;;;;;;;7.65;1.20;;;17.60;99.90;;;;;;4958439;28;20040;-69
2022/11/10 12:51:04;;;;;;;6.80;1.48;;;17.60;99.90;;;;;;4975931;28;20026;-69
2022/11/10 12:53:44;;;;;;;6.03;1.50;;;17.50;99.90;;;;;;4947339;28;20049;-69
2022/11/10 12:56:29;;;;;;;6.40;1.27;;;17.60;99.90;;;;;;4958710;28;20065;-69
2022/11/10 12:59:32;;;;;;;8.30;1.25;;;18.00;99.90;;;;;;4975657;28;20045;-69
2022/11/10 13:02:25;;;;;;;6.40;1.42;;;17.70;99.90;;;;;;4958058;28;20113;-69
2022/11/10 13:05:28;;;;;;;8.73;2.30;;;17.70;99.90;;;;;;4975783;28;20023;-69
2022/11/10 13:08:22;;;;;;;6.53;2.67;;;18.10;99.90;;;;;;4975448;28;20030;-69
2022/11/10 13:11:17;;;;;;;6.75;1.50;;;18.20;99.90;;;;;;4957756;28;20027;-69
2022/11/10 13:13:57;;;;;;;7.72;1.20;;;18.20;99.90;;;;;;4949389;28;20042;-69
2022/11/10 13:16:48;;;;;;;4.80;1.33;;;18.30;99.90;;;;;;4958483;28;20118;-69
2022/11/10 13:22:49;;;;;;;9.40;1.90;;;18.40;99.90;;;;;;4973829;28;20027;-69
2022/11/10 13:25:44;;;;;;;5.05;1.85;;;18.60;99.90;;;;;;4975117;28;20030;-69
2022/11/10 13:28:21;;;;;;;9.43;2.10;;;18.50;99.90;;;;;;4975311;28;20023;-69